sensor_id;sensor_type;location;lat;lon;timestamp;P1;P2;P0
61873;PMS5003;49692;55.052;73.310;2022-08-23T00:00:20;6.25;4.50;3.25
61873;PMS5003;49692;55.052;73.310;2022-08-23T00:02:47;8.00;5.00;4.00
61873;PMS5003;49692;55.052;73.310;2022-08-23T00:05:15;6.25;4.25;4.00
61873;PMS5003;49692;55.052;73.310;2022-08-23T00:07:42;6.25;4.00;2.50
61873;PMS5003;49692;55.052;73.310;2022-08-23T00:10:11;5.25;5.00;4.25
61873;PMS5003;49692;55.052;73.310;2022-08-23T00:12:40;5.50;5.50;4.00
61873;PMS5003;49692;55.052;73.310;2022-08-23T00:15:15;10.00;5.25;3.25
61873;PMS5003;49692;55.052;73.310;2022-08-23T00:17:49;5.25;5.00;3.50
61873;PMS5003;49692;55.052;73.310;2022-08-23T00:20:17;7.25;5.75;4.25
61873;PMS5003;49692;55.052;73.310;2022-08-23T00:22:55;7.00;7.00;4.50
61873;PMS5003;49692;55.052;73.310;2022-08-23T00:25:34;4.00;4.00;4.00
61873;PMS5003;49692;55.052;73.310;2022-08-23T00:28:01;5.75;4.00;2.75
61873;PMS5003;49692;55.052;73.310;2022-08-23T00:30:28;6.25;4.00;2.75
61873;PMS5003;49692;55.052;73.310;2022-08-23T00:32:56;2.50;1.00;1.00
61873;PMS5003;49692;55.052;73.310;2022-08-23T00:35:23;6.50;4.50;4.00
61873;PMS5003;49692;55.052;73.310;2022-08-23T00:37:55;6.50;4.00;3.00
61873;PMS5003;49692;55.052;73.310;2022-08-23T00:40:23;8.50;5.75;4.00
61873;PMS5003;49692;55.052;73.310;2022-08-23T00:42:51;7.25;4.75;4.00
61873;PMS5003;49692;55.052;73.310;2022-08-23T00:45:50;7.00;5.00;3.00
61873;PMS5003;49692;55.052;73.310;2022-08-23T00:48:52;5.25;5.00;3.00
61873;PMS5003;49692;55.052;73.310;2022-08-23T00:51:23;7.25;4.00;2.00
61873;PMS5003;49692;55.052;73.310;2022-08-23T00:54:25;7.00;5.00;3.50
61873;PMS5003;49692;55.052;73.310;2022-08-23T00:56:55;17.50;6.00;4.00
61873;PMS5003;49692;55.052;73.310;2022-08-23T00:59:23;8.00;6.25;5.00
61873;PMS5003;49692;55.052;73.310;2022-08-23T01:01:51;7.00;5.00;4.25
61873;PMS5003;49692;55.052;73.310;2022-08-23T01:04:23;6.00;5.00;4.00
61873;PMS5003;49692;55.052;73.310;2022-08-23T01:06:54;9.00;5.50;4.00
61873;PMS5003;49692;55.052;73.310;2022-08-23T01:09:54;7.75;6.50;5.00
61873;PMS5003;49692;55.052;73.310;2022-08-23T01:12:35;9.00;5.75;4.00
61873;PMS5003;49692;55.052;73.310;2022-08-23T01:15:14;8.50;5.00;4.00
61873;PMS5003;49692;55.052;73.310;2022-08-23T01:18:09;12.00;7.25;4.75
61873;PMS5003;49692;55.052;73.310;2022-08-23T01:20:48;11.00;4.50;4.00
61873;PMS5003;49692;55.052;73.310;2022-08-23T01:23:36;6.75;3.50;2.75
61873;PMS5003;49692;55.052;73.310;2022-08-23T01:26:09;8.00;4.20;2.80
61873;PMS5003;49692;55.052;73.310;2022-08-23T01:28:38;9.00;3.00;1.50
61873;PMS5003;49692;55.052;73.310;2022-08-23T01:31:06;7.00;5.00;4.00
61873;PMS5003;49692;55.052;73.310;2022-08-23T01:33:35;8.25;4.00;2.00
61873;PMS5003;49692;55.052;73.310;2022-08-23T01:36:04;5.75;5.50;4.00
61873;PMS5003;49692;55.052;73.310;2022-08-23T01:38:34;7.00;6.00;5.75
61873;PMS5003;49692;55.052;73.310;2022-08-23T01:41:01;10.75;7.25;5.50
61873;PMS5003;49692;55.052;73.310;2022-08-23T01:43:30;8.00;7.00;7.00
61873;PMS5003;49692;55.052;73.310;2022-08-23T01:46:13;13.75;7.50;6.00
61873;PMS5003;49692;55.052;73.310;2022-08-23T01:48:47;9.50;7.00;5.25
61873;PMS5003;49692;55.052;73.310;2022-08-23T01:51:24;9.50;5.00;4.25
61873;PMS5003;49692;55.052;73.310;2022-08-23T01:53:52;8.50;6.50;4.50
61873;PMS5003;49692;55.052;73.310;2022-08-23T01:56:25;1.75;1.00;0.00
61873;PMS5003;49692;55.052;73.310;2022-08-23T01:59:11;8.00;4.00;1.75
61873;PMS5003;49692;55.052;73.310;2022-08-23T02:02:01;3.50;1.75;1.50
61873;PMS5003;49692;55.052;73.310;2022-08-23T02:04:31;4.00;4.00;2.00
61873;PMS5003;49692;55.052;73.310;2022-08-23T02:06:57;7.00;3.50;2.00
61873;PMS5003;49692;55.052;73.310;2022-08-23T02:09:31;4.00;3.50;2.00
61873;PMS5003;49692;55.052;73.310;2022-08-23T02:12:12;1.50;1.50;1.25
61873;PMS5003;49692;55.052;73.310;2022-08-23T02:14:40;3.00;1.50;1.00
61873;PMS5003;49692;55.052;73.310;2022-08-23T02:17:18;2.50;2.50;1.75
61873;PMS5003;49692;55.052;73.310;2022-08-23T02:19:45;3.00;1.00;1.00
61873;PMS5003;49692;55.052;73.310;2022-08-23T02:22:11;1.50;0.00;0.00
61873;PMS5003;49692;55.052;73.310;2022-08-23T02:24:40;6.00;2.50;1.75
61873;PMS5003;49692;55.052;73.310;2022-08-23T02:27:10;2.75;1.25;1.00
61873;PMS5003;49692;55.052;73.310;2022-08-23T02:29:42;4.75;2.00;1.50
61873;PMS5003;49692;55.052;73.310;2022-08-23T02:32:21;2.00;2.00;1.00
61873;PMS5003;49692;55.052;73.310;2022-08-23T02:34:50;47.50;41.00;27.00
61873;PMS5003;49692;55.052;73.310;2022-08-23T02:37:20;4.25;2.50;2.00
61873;PMS5003;49692;55.052;73.310;2022-08-23T02:39:46;2.50;2.50;1.25
61873;PMS5003;49692;55.052;73.310;2022-08-23T02:42:24;1.50;1.00;1.00
61873;PMS5003;49692;55.052;73.310;2022-08-23T02:44:50;2.50;2.00;1.25
61873;PMS5003;49692;55.052;73.310;2022-08-23T02:47:27;4.75;2.00;1.00
61873;PMS5003;49692;55.052;73.310;2022-08-23T02:50:21;6.00;2.00;2.00
61873;PMS5003;49692;55.052;73.310;2022-08-23T02:52:53;5.00;3.50;2.00
61873;PMS5003;49692;55.052;73.310;2022-08-23T02:55:26;0.00;0.00;0.00
61873;PMS5003;49692;55.052;73.310;2022-08-23T02:57:59;2.00;2.00;1.50
61873;PMS5003;49692;55.052;73.310;2022-08-23T03:00:25;1.75;1.75;1.00
61873;PMS5003;49692;55.052;73.310;2022-08-23T03:02:53;1.75;1.75;1.00
61873;PMS5003;49692;55.052;73.310;2022-08-23T03:05:20;1.50;1.50;1.00
61873;PMS5003;49692;55.052;73.310;2022-08-23T03:07:59;2.00;2.00;1.00
61873;PMS5003;49692;55.052;73.310;2022-08-23T03:10:31;4.75;3.00;2.50
61873;PMS5003;49692;55.052;73.310;2022-08-23T03:13:09;2.00;2.00;2.00
61873;PMS5003;49692;55.052;73.310;2022-08-23T03:15:47;1.50;1.50;1.00
61873;PMS5003;49692;55.052;73.310;2022-08-23T03:18:14;4.50;3.00;2.00
61873;PMS5003;49692;55.052;73.310;2022-08-23T03:20:42;1.00;1.00;1.00
61873;PMS5003;49692;55.052;73.310;2022-08-23T03:23:20;1.75;1.75;1.00
61873;PMS5003;49692;55.052;73.310;2022-08-23T03:25:47;7.00;7.00;4.00
61873;PMS5003;49692;55.052;73.310;2022-08-23T03:28:24;4.75;4.00;2.00
61873;PMS5003;49692;55.052;73.310;2022-08-23T03:30:51;2.00;2.00;1.25
61873;PMS5003;49692;55.052;73.310;2022-08-23T03:33:18;4.00;4.00;4.00
61873;PMS5003;49692;55.052;73.310;2022-08-23T03:35:46;4.25;1.50;1.25
61873;PMS5003;49692;55.052;73.310;2022-08-23T03:38:16;4.00;4.00;2.00
61873;PMS5003;49692;55.052;73.310;2022-08-23T03:40:46;4.25;2.00;1.00
61873;PMS5003;49692;55.052;73.310;2022-08-23T03:43:14;1.25;1.25;1.25
61873;PMS5003;49692;55.052;73.310;2022-08-23T03:45:41;6.25;2.00;1.00
61873;PMS5003;49692;55.052;73.310;2022-08-23T03:48:11;4.00;2.00;1.00
61873;PMS5003;49692;55.052;73.310;2022-08-23T03:50:38;2.50;1.50;1.00
61873;PMS5003;49692;55.052;73.310;2022-08-23T03:53:14;2.00;1.00;0.25
61873;PMS5003;49692;55.052;73.310;2022-08-23T03:55:44;5.50;3.00;2.00
61873;PMS5003;49692;55.052;73.310;2022-08-23T03:58:15;1.50;1.00;1.00
61873;PMS5003;49692;55.052;73.310;2022-08-23T04:00:52;4.00;2.00;0.00
61873;PMS5003;49692;55.052;73.310;2022-08-23T04:03:18;1.60;1.60;1.00
61873;PMS5003;49692;55.052;73.310;2022-08-23T04:05:59;2.00;2.00;1.00
61873;PMS5003;49692;55.052;73.310;2022-08-23T04:11:33;1.00;1.00;0.25
61873;PMS5003;49692;55.052;73.310;2022-08-23T04:14:05;2.00;2.00;2.00
61873;PMS5003;49692;55.052;73.310;2022-08-23T04:16:33;1.00;1.00;0.75
61873;PMS5003;49692;55.052;73.310;2022-08-23T04:19:03;0.00;0.00;0.00
61873;PMS5003;49692;55.052;73.310;2022-08-23T04:21:33;2.00;1.25;1.00
61873;PMS5003;49692;55.052;73.310;2022-08-23T04:24:03;1.60;1.00;0.00
61873;PMS5003;49692;55.052;73.310;2022-08-23T04:26:41;4.50;2.50;1.00
61873;PMS5003;49692;55.052;73.310;2022-08-23T04:29:08;0.00;0.00;0.00
61873;PMS5003;49692;55.052;73.310;2022-08-23T04:31:44;1.00;1.00;1.00
61873;PMS5003;49692;55.052;73.310;2022-08-23T04:34:12;3.20;2.00;1.00
61873;PMS5003;49692;55.052;73.310;2022-08-23T04:36:39;4.00;2.00;2.00
61873;PMS5003;49692;55.052;73.310;2022-08-23T04:39:08;2.00;2.00;1.75
61873;PMS5003;49692;55.052;73.310;2022-08-23T04:41:36;1.00;1.00;0.00
61873;PMS5003;49692;55.052;73.310;2022-08-23T04:44:28;3.00;2.00;2.00
61873;PMS5003;49692;55.052;73.310;2022-08-23T04:46:56;12.00;7.75;5.00
61873;PMS5003;49692;55.052;73.310;2022-08-23T04:49:32;5.50;4.00;2.00
61873;PMS5003;49692;55.052;73.310;2022-08-23T04:52:02;1.75;1.75;1.50
61873;PMS5003;49692;55.052;73.310;2022-08-23T04:54:35;5.25;3.50;2.00
61873;PMS5003;49692;55.052;73.310;2022-08-23T04:57:20;1.00;1.00;1.00
61873;PMS5003;49692;55.052;73.310;2022-08-23T04:59:53;4.00;2.00;1.75
61873;PMS5003;49692;55.052;73.310;2022-08-23T05:02:27;1.50;1.25;0.75
61873;PMS5003;49692;55.052;73.310;2022-08-23T05:04:55;3.75;2.00;1.25
61873;PMS5003;49692;55.052;73.310;2022-08-23T05:07:22;1.00;1.00;1.00
61873;PMS5003;49692;55.052;73.310;2022-08-23T05:09:48;1.50;1.50;1.00
61873;PMS5003;49692;55.052;73.310;2022-08-23T05:12:20;1.50;1.50;1.00
61873;PMS5003;49692;55.052;73.310;2022-08-23T05:14:48;2.40;2.00;2.00
61873;PMS5003;49692;55.052;73.310;2022-08-23T05:17:19;3.60;2.00;1.00
61873;PMS5003;49692;55.052;73.310;2022-08-23T05:19:57;2.40;2.00;1.20
61873;PMS5003;49692;55.052;73.310;2022-08-23T05:22:23;4.00;1.25;1.00
61873;PMS5003;49692;55.052;73.310;2022-08-23T05:25:08;4.25;2.00;1.75
61873;PMS5003;49692;55.052;73.310;2022-08-23T05:27:45;2.00;1.00;0.00
61873;PMS5003;49692;55.052;73.310;2022-08-23T05:30:14;4.00;1.40;1.20
61873;PMS5003;49692;55.052;73.310;2022-08-23T05:32:47;3.40;2.00;1.00
61873;PMS5003;49692;55.052;73.310;2022-08-23T05:35:13;4.00;2.00;1.00
61873;PMS5003;49692;55.052;73.310;2022-08-23T05:37:43;3.00;2.00;1.00
61873;PMS5003;49692;55.052;73.310;2022-08-23T05:40:09;1.00;1.00;1.00
61873;PMS5003;49692;55.052;73.310;2022-08-23T05:42:48;2.80;1.20;1.00
61873;PMS5003;49692;55.052;73.310;2022-08-23T05:45:29;1.60;1.00;0.00
61873;PMS5003;49692;55.052;73.310;2022-08-23T05:47:55;2.00;1.00;1.00
61873;PMS5003;49692;55.052;73.310;2022-08-23T05:50:30;1.40;1.40;1.20
61873;PMS5003;49692;55.052;73.310;2022-08-23T05:52:57;3.60;2.00;1.00
61873;PMS5003;49692;55.052;73.310;2022-08-23T05:55:24;1.50;1.50;1.00
61873;PMS5003;49692;55.052;73.310;2022-08-23T05:58:05;1.80;1.80;0.00
61873;PMS5003;49692;55.052;73.310;2022-08-23T06:00:37;2.00;1.00;0.60
61873;PMS5003;49692;55.052;73.310;2022-08-23T06:03:05;1.20;1.20;1.00
61873;PMS5003;49692;55.052;73.310;2022-08-23T06:05:38;1.60;1.00;1.00
61873;PMS5003;49692;55.052;73.310;2022-08-23T06:08:16;4.00;1.00;1.00
61873;PMS5003;49692;55.052;73.310;2022-08-23T06:10:49;2.40;1.00;1.00
61873;PMS5003;49692;55.052;73.310;2022-08-23T06:13:29;4.40;2.80;2.00
61873;PMS5003;49692;55.052;73.310;2022-08-23T06:15:57;14.00;8.75;4.00
61873;PMS5003;49692;55.052;73.310;2022-08-23T06:18:32;2.40;2.40;1.00
61873;PMS5003;49692;55.052;73.310;2022-08-23T06:21:13;1.00;1.00;1.00
61873;PMS5003;49692;55.052;73.310;2022-08-23T06:23:52;3.60;2.00;1.00
61873;PMS5003;49692;55.052;73.310;2022-08-23T06:26:28;2.20;1.00;0.80
61873;PMS5003;49692;55.052;73.310;2022-08-23T06:29:08;1.80;1.80;1.80
61873;PMS5003;49692;55.052;73.310;2022-08-23T06:31:49;1.00;1.00;0.40
61873;PMS5003;49692;55.052;73.310;2022-08-23T06:34:28;2.00;2.00;1.00
61873;PMS5003;49692;55.052;73.310;2022-08-23T06:37:17;3.20;1.60;1.00
61873;PMS5003;49692;55.052;73.310;2022-08-23T06:40:19;2.00;2.00;1.00
61873;PMS5003;49692;55.052;73.310;2022-08-23T06:42:52;3.00;3.00;1.60
61873;PMS5003;49692;55.052;73.310;2022-08-23T06:45:24;1.40;1.40;1.20
61873;PMS5003;49692;55.052;73.310;2022-08-23T06:47:59;1.40;0.80;0.20
61873;PMS5003;49692;55.052;73.310;2022-08-23T06:50:36;1.60;1.60;1.00
61873;PMS5003;49692;55.052;73.310;2022-08-23T06:53:21;0.20;0.20;0.00
61873;PMS5003;49692;55.052;73.310;2022-08-23T06:56:11;2.00;1.75;1.00
61873;PMS5003;49692;55.052;73.310;2022-08-23T06:58:46;1.00;1.00;1.00
61873;PMS5003;49692;55.052;73.310;2022-08-23T07:01:39;2.00;1.20;0.00
61873;PMS5003;49692;55.052;73.310;2022-08-23T07:04:26;2.50;2.50;1.50
61873;PMS5003;49692;55.052;73.310;2022-08-23T07:07:07;0.50;0.00;0.00
61873;PMS5003;49692;55.052;73.310;2022-08-23T07:09:35;0.00;0.00;0.00
61873;PMS5003;49692;55.052;73.310;2022-08-23T07:12:02;2.80;2.00;1.00
61873;PMS5003;49692;55.052;73.310;2022-08-23T07:14:30;1.60;1.60;1.00
61873;PMS5003;49692;55.052;73.310;2022-08-23T07:16:58;8.20;5.60;4.00
61873;PMS5003;49692;55.052;73.310;2022-08-23T07:19:31;1.00;1.00;1.00
61873;PMS5003;49692;55.052;73.310;2022-08-23T07:22:04;1.40;1.00;1.00
61873;PMS5003;49692;55.052;73.310;2022-08-23T07:24:37;1.60;1.20;1.00
61873;PMS5003;49692;55.052;73.310;2022-08-23T07:27:06;1.00;1.00;0.80
61873;PMS5003;49692;55.052;73.310;2022-08-23T07:29:41;2.00;2.00;1.00
61873;PMS5003;49692;55.052;73.310;2022-08-23T07:32:08;2.20;1.40;1.00
61873;PMS5003;49692;55.052;73.310;2022-08-23T07:34:40;5.60;4.20;2.00
61873;PMS5003;49692;55.052;73.310;2022-08-23T07:37:06;0.00;0.00;0.00
61873;PMS5003;49692;55.052;73.310;2022-08-23T07:39:34;5.75;5.50;5.25
61873;PMS5003;49692;55.052;73.310;2022-08-23T07:42:01;2.00;2.00;1.40
61873;PMS5003;49692;55.052;73.310;2022-08-23T07:44:39;2.40;1.60;1.00
61873;PMS5003;49692;55.052;73.310;2022-08-23T07:47:06;2.80;2.00;1.00
61873;PMS5003;49692;55.052;73.310;2022-08-23T07:49:43;0.40;0.40;0.00
61873;PMS5003;49692;55.052;73.310;2022-08-23T07:52:10;2.40;2.40;1.00
61873;PMS5003;49692;55.052;73.310;2022-08-23T07:54:37;1.00;1.00;1.00
61873;PMS5003;49692;55.052;73.310;2022-08-23T07:57:30;1.60;1.00;1.00
61873;PMS5003;49692;55.052;73.310;2022-08-23T08:00:15;1.80;0.80;0.80
61873;PMS5003;49692;55.052;73.310;2022-08-23T08:02:52;1.20;1.20;1.00
61873;PMS5003;49692;55.052;73.310;2022-08-23T08:05:27;1.40;1.00;1.00
61873;PMS5003;49692;55.052;73.310;2022-08-23T08:07:57;0.60;0.60;0.40
61873;PMS5003;49692;55.052;73.310;2022-08-23T08:10:27;2.40;2.00;1.00
61873;PMS5003;49692;55.052;73.310;2022-08-23T08:12:54;1.40;1.00;1.00
61873;PMS5003;49692;55.052;73.310;2022-08-23T08:15:20;1.80;1.80;1.20
61873;PMS5003;49692;55.052;73.310;2022-08-23T08:17:56;4.40;1.60;1.00
61873;PMS5003;49692;55.052;73.310;2022-08-23T08:20:44;3.00;1.00;1.00
61873;PMS5003;49692;55.052;73.310;2022-08-23T08:23:27;2.00;1.00;1.00
61873;PMS5003;49692;55.052;73.310;2022-08-23T08:26:15;2.00;2.00;1.00
61873;PMS5003;49692;55.052;73.310;2022-08-23T08:28:52;1.00;1.00;1.00
61873;PMS5003;49692;55.052;73.310;2022-08-23T08:31:24;2.40;2.00;1.20
61873;PMS5003;49692;55.052;73.310;2022-08-23T08:33:52;3.40;2.00;1.20
61873;PMS5003;49692;55.052;73.310;2022-08-23T08:36:35;4.20;2.00;1.00
61873;PMS5003;49692;55.052;73.310;2022-08-23T08:39:21;3.40;1.60;1.00
61873;PMS5003;49692;55.052;73.310;2022-08-23T08:55:32;3.40;3.40;2.40
61873;PMS5003;49692;55.052;73.310;2022-08-23T08:58:05;31.00;27.00;17.50
61873;PMS5003;49692;55.052;73.310;2022-08-23T09:00:40;2.80;2.80;2.00
61873;PMS5003;49692;55.052;73.310;2022-08-23T09:03:12;6.60;5.00;3.80
61873;PMS5003;49692;55.052;73.310;2022-08-23T09:06:29;5.40;4.00;1.60
61873;PMS5003;49692;55.052;73.310;2022-08-23T09:14:24;2.00;1.00;1.00
61873;PMS5003;49692;55.052;73.310;2022-08-23T09:19:45;2.00;2.00;1.60
61873;PMS5003;49692;55.052;73.310;2022-08-23T09:22:44;1.00;1.00;1.00
61873;PMS5003;49692;55.052;73.310;2022-08-23T09:25:28;2.40;1.00;1.00
61873;PMS5003;49692;55.052;73.310;2022-08-23T09:28:05;1.00;0.40;0.00
61873;PMS5003;49692;55.052;73.310;2022-08-23T09:33:39;2.00;1.00;1.00
61873;PMS5003;49692;55.052;73.310;2022-08-23T09:36:43;2.00;1.60;1.00
61873;PMS5003;49692;55.052;73.310;2022-08-23T09:39:27;1.60;1.60;1.00
61873;PMS5003;49692;55.052;73.310;2022-08-23T09:41:58;1.80;1.00;0.40
61873;PMS5003;49692;55.052;73.310;2022-08-23T09:44:33;2.00;2.00;1.00
61873;PMS5003;49692;55.052;73.310;2022-08-23T09:47:12;2.20;2.20;1.80
61873;PMS5003;49692;55.052;73.310;2022-08-23T09:49:47;2.00;2.00;1.00
61873;PMS5003;49692;55.052;73.310;2022-08-23T09:52:26;4.20;2.40;2.00
61873;PMS5003;49692;55.052;73.310;2022-08-23T09:55:11;1.80;1.00;0.00
61873;PMS5003;49692;55.052;73.310;2022-08-23T09:57:57;2.20;2.00;1.00
61873;PMS5003;49692;55.052;73.310;2022-08-23T10:00:29;6.60;4.00;2.00
61873;PMS5003;49692;55.052;73.310;2022-08-23T10:03:23;0.40;0.40;0.40
61873;PMS5003;49692;55.052;73.310;2022-08-23T10:05:58;1.20;1.20;0.60
61873;PMS5003;49692;55.052;73.310;2022-08-23T10:08:35;2.00;2.00;1.00
61873;PMS5003;49692;55.052;73.310;2022-08-23T10:11:10;2.00;2.00;1.00
61873;PMS5003;49692;55.052;73.310;2022-08-23T10:13:52;1.40;1.00;1.00
61873;PMS5003;49692;55.052;73.310;2022-08-23T10:32:25;4.00;2.60;1.40
61873;PMS5003;49692;55.052;73.310;2022-08-23T10:41:17;5.60;4.60;3.00
61873;PMS5003;49692;55.052;73.310;2022-08-23T10:44:00;4.20;1.00;1.00
61873;PMS5003;49692;55.052;73.310;2022-08-23T10:46:59;1.00;1.00;0.80
61873;PMS5003;49692;55.052;73.310;2022-08-23T10:57:33;1.20;0.00;0.00
61873;PMS5003;49692;55.052;73.310;2022-08-23T11:00:14;2.40;1.00;1.00
61873;PMS5003;49692;55.052;73.310;2022-08-23T11:02:49;1.60;1.00;0.00
61873;PMS5003;49692;55.052;73.310;2022-08-23T11:05:41;1.80;1.00;1.00
61873;PMS5003;49692;55.052;73.310;2022-08-23T11:14:44;2.00;2.00;1.40
61873;PMS5003;49692;55.052;73.310;2022-08-23T11:23:38;1.00;1.00;1.00
61873;PMS5003;49692;55.052;73.310;2022-08-23T11:28:48;6.00;3.40;2.00
61873;PMS5003;49692;55.052;73.310;2022-08-23T11:31:24;5.00;4.00;1.00
61873;PMS5003;49692;55.052;73.310;2022-08-23T11:34:08;2.60;1.40;1.00
61873;PMS5003;49692;55.052;73.310;2022-08-23T11:59:22;3.40;2.40;1.00
61873;PMS5003;49692;55.052;73.310;2022-08-23T12:05:39;4.00;2.00;1.00
61873;PMS5003;49692;55.052;73.310;2022-08-23T12:08:50;1.00;1.00;1.00
61873;PMS5003;49692;55.052;73.310;2022-08-23T12:11:23;4.20;4.20;1.20
61873;PMS5003;49692;55.052;73.310;2022-08-23T12:14:01;5.60;4.00;2.00
61873;PMS5003;49692;55.052;73.310;2022-08-23T12:25:22;1.80;1.80;1.40
61873;PMS5003;49692;55.052;73.310;2022-08-23T12:28:18;1.80;1.00;0.00
61873;PMS5003;49692;55.052;73.310;2022-08-23T12:37:05;5.60;1.20;0.00
61873;PMS5003;49692;55.052;73.310;2022-08-23T12:39:39;1.20;1.20;1.00
61873;PMS5003;49692;55.052;73.310;2022-08-23T12:42:18;2.00;2.00;1.00
61873;PMS5003;49692;55.052;73.310;2022-08-23T12:44:59;1.00;1.00;1.00
61873;PMS5003;49692;55.052;73.310;2022-08-23T12:47:33;5.20;2.80;2.00
61873;PMS5003;49692;55.052;73.310;2022-08-23T12:50:15;1.00;1.00;0.40
61873;PMS5003;49692;55.052;73.310;2022-08-23T12:52:54;1.80;1.80;1.40
61873;PMS5003;49692;55.052;73.310;2022-08-23T12:55:30;5.00;1.00;1.00
61873;PMS5003;49692;55.052;73.310;2022-08-23T12:58:00;2.80;1.40;1.40
61873;PMS5003;49692;55.052;73.310;2022-08-23T13:00:33;7.00;1.00;1.00
61873;PMS5003;49692;55.052;73.310;2022-08-23T13:03:23;2.00;2.00;1.00
61873;PMS5003;49692;55.052;73.310;2022-08-23T13:05:58;4.80;2.40;1.00
61873;PMS5003;49692;55.052;73.310;2022-08-23T13:11:45;1.60;1.60;1.00
61873;PMS5003;49692;55.052;73.310;2022-08-23T13:17:12;3.00;1.60;1.00
61873;PMS5003;49692;55.052;73.310;2022-08-23T13:19:42;5.00;4.00;1.40
61873;PMS5003;49692;55.052;73.310;2022-08-23T13:22:21;17.40;14.40;9.20
61873;PMS5003;49692;55.052;73.310;2022-08-23T13:27:35;0.00;0.00;0.00
61873;PMS5003;49692;55.052;73.310;2022-08-23T13:30:33;4.40;2.80;1.00
61873;PMS5003;49692;55.052;73.310;2022-08-23T13:35:32;2.40;2.40;2.00
61873;PMS5003;49692;55.052;73.310;2022-08-23T13:38:22;8.80;4.00;2.00
61873;PMS5003;49692;55.052;73.310;2022-08-23T13:40:59;2.00;2.00;2.00
61873;PMS5003;49692;55.052;73.310;2022-08-23T13:43:45;4.80;4.60;1.80
61873;PMS5003;49692;55.052;73.310;2022-08-23T13:46:26;1.80;1.80;1.20
61873;PMS5003;49692;55.052;73.310;2022-08-23T13:49:01;5.40;2.00;2.00
61873;PMS5003;49692;55.052;73.310;2022-08-23T13:52:05;3.80;2.20;2.00
61873;PMS5003;49692;55.052;73.310;2022-08-23T13:54:36;4.00;2.40;1.00
61873;PMS5003;49692;55.052;73.310;2022-08-23T13:57:06;5.20;4.80;2.00
61873;PMS5003;49692;55.052;73.310;2022-08-23T13:59:40;5.00;4.00;2.40
61873;PMS5003;49692;55.052;73.310;2022-08-23T14:02:17;8.60;2.40;1.20
61873;PMS5003;49692;55.052;73.310;2022-08-23T14:04:46;4.00;1.00;1.00
61873;PMS5003;49692;55.052;73.310;2022-08-23T14:07:18;6.00;4.00;3.00
61873;PMS5003;49692;55.052;73.310;2022-08-23T14:09:45;4.00;2.00;2.00
61873;PMS5003;49692;55.052;73.310;2022-08-23T14:12:19;3.20;1.60;0.20
61873;PMS5003;49692;55.052;73.310;2022-08-23T14:14:49;8.60;2.00;1.40
61873;PMS5003;49692;55.052;73.310;2022-08-23T14:17:19;3.60;2.80;2.00
61873;PMS5003;49692;55.052;73.310;2022-08-23T14:19:46;2.00;1.60;1.00
61873;PMS5003;49692;55.052;73.310;2022-08-23T14:22:13;5.00;2.40;1.40
61873;PMS5003;49692;55.052;73.310;2022-08-23T14:24:42;22.75;17.25;10.25
61873;PMS5003;49692;55.052;73.310;2022-08-23T14:27:10;27.50;19.00;11.75
61873;PMS5003;49692;55.052;73.310;2022-08-23T14:29:42;7.25;6.25;4.00
61873;PMS5003;49692;55.052;73.310;2022-08-23T14:32:12;11.20;4.00;2.40
61873;PMS5003;49692;55.052;73.310;2022-08-23T14:34:44;8.20;7.20;4.00
61873;PMS5003;49692;55.052;73.310;2022-08-23T14:37:11;5.00;5.00;2.00
61873;PMS5003;49692;55.052;73.310;2022-08-23T14:39:37;3.20;3.20;1.60
61873;PMS5003;49692;55.052;73.310;2022-08-23T14:42:10;4.25;4.25;3.00
61873;PMS5003;49692;55.052;73.310;2022-08-23T14:44:51;3.60;3.20;2.00
61873;PMS5003;49692;55.052;73.310;2022-08-23T14:47:18;5.80;4.60;1.40
61873;PMS5003;49692;55.052;73.310;2022-08-23T14:49:46;5.40;5.40;3.60
61873;PMS5003;49692;55.052;73.310;2022-08-23T14:52:23;4.40;3.20;2.00
61873;PMS5003;49692;55.052;73.310;2022-08-23T14:54:51;7.20;2.00;2.00
61873;PMS5003;49692;55.052;73.310;2022-08-23T14:57:17;60.25;47.75;26.50
61873;PMS5003;49692;55.052;73.310;2022-08-23T14:59:44;34.25;30.50;18.25
61873;PMS5003;49692;55.052;73.310;2022-08-23T15:02:13;27.50;18.50;12.25
61873;PMS5003;49692;55.052;73.310;2022-08-23T15:04:57;7.50;4.00;2.50
61873;PMS5003;49692;55.052;73.310;2022-08-23T15:07:25;7.25;5.75;4.00
61873;PMS5003;49692;55.052;73.310;2022-08-23T15:10:02;9.75;4.50;4.00
61873;PMS5003;49692;55.052;73.310;2022-08-23T15:12:40;5.80;5.00;2.40
61873;PMS5003;49692;55.052;73.310;2022-08-23T15:15:08;8.00;5.75;4.00
61873;PMS5003;49692;55.052;73.310;2022-08-23T15:18:15;5.80;4.20;2.60
61873;PMS5003;49692;55.052;73.310;2022-08-23T15:20:36;9.50;6.75;3.75
61873;PMS5003;49692;55.052;73.310;2022-08-23T15:23:04;7.50;5.00;3.00
61873;PMS5003;49692;55.052;73.310;2022-08-23T15:25:38;8.25;4.50;3.00
61873;PMS5003;49692;55.052;73.310;2022-08-23T15:28:07;4.75;4.75;4.25
61873;PMS5003;49692;55.052;73.310;2022-08-23T15:30:40;3.00;3.00;2.50
61873;PMS5003;49692;55.052;73.310;2022-08-23T15:33:08;5.50;3.25;2.00
61873;PMS5003;49692;55.052;73.310;2022-08-23T15:35:38;6.50;5.75;4.00
61873;PMS5003;49692;55.052;73.310;2022-08-23T15:38:09;7.50;4.25;3.00
61873;PMS5003;49692;55.052;73.310;2022-08-23T15:40:37;9.75;4.75;2.00
61873;PMS5003;49692;55.052;73.310;2022-08-23T15:43:05;5.75;5.00;4.00
61873;PMS5003;49692;55.052;73.310;2022-08-23T15:45:34;9.25;2.00;1.75
61873;PMS5003;49692;55.052;73.310;2022-08-23T15:48:04;5.75;5.25;2.25
61873;PMS5003;49692;55.052;73.310;2022-08-23T15:50:40;2.50;1.00;1.00
61873;PMS5003;49692;55.052;73.310;2022-08-23T15:53:13;4.50;2.00;2.00
61873;PMS5003;49692;55.052;73.310;2022-08-23T15:55:42;4.50;2.00;1.50
61873;PMS5003;49692;55.052;73.310;2022-08-23T15:58:14;4.25;3.50;1.00
61873;PMS5003;49692;55.052;73.310;2022-08-23T16:00:53;8.50;5.75;4.00
61873;PMS5003;49692;55.052;73.310;2022-08-23T16:03:20;5.50;2.50;2.00
61873;PMS5003;49692;55.052;73.310;2022-08-23T16:05:49;4.25;4.25;2.00
61873;PMS5003;49692;55.052;73.310;2022-08-23T16:08:24;4.50;4.00;2.00
61873;PMS5003;49692;55.052;73.310;2022-08-23T16:11:04;4.75;4.00;1.00
61873;PMS5003;49692;55.052;73.310;2022-08-23T16:13:38;29.00;26.00;16.75
61873;PMS5003;49692;55.052;73.310;2022-08-23T16:16:40;23.00;18.50;12.00
61873;PMS5003;49692;55.052;73.310;2022-08-23T16:19:13;25.75;19.50;12.25
61873;PMS5003;49692;55.052;73.310;2022-08-23T16:21:40;17.50;12.25;8.75
61873;PMS5003;49692;55.052;73.310;2022-08-23T16:24:07;26.75;19.25;12.25
61873;PMS5003;49692;55.052;73.310;2022-08-23T16:26:35;30.50;20.25;14.00
61873;PMS5003;49692;55.052;73.310;2022-08-23T16:29:14;26.00;24.00;16.50
61873;PMS5003;49692;55.052;73.310;2022-08-23T16:31:44;26.00;19.25;15.25
61873;PMS5003;49692;55.052;73.310;2022-08-23T16:34:16;23.50;16.25;10.00
61873;PMS5003;49692;55.052;73.310;2022-08-23T16:36:48;28.00;21.50;12.75
61873;PMS5003;49692;55.052;73.310;2022-08-23T16:39:21;25.75;16.50;12.50
61873;PMS5003;49692;55.052;73.310;2022-08-23T16:41:49;25.75;18.50;10.00
61873;PMS5003;49692;55.052;73.310;2022-08-23T16:44:16;29.75;16.75;13.00
61873;PMS5003;49692;55.052;73.310;2022-08-23T16:46:44;22.00;18.00;11.50
61873;PMS5003;49692;55.052;73.310;2022-08-23T16:49:12;26.00;18.75;12.00
61873;PMS5003;49692;55.052;73.310;2022-08-23T16:51:41;22.50;15.50;10.75
61873;PMS5003;49692;55.052;73.310;2022-08-23T16:54:08;24.50;16.00;11.75